Terminal Aerodrome Forecast
Issued by NWS

Home | Current Version | Previous Version | Text Only | Print | Product List | Glossary On
Versions: 1 2 3 4 5 6 7 8 9 10 11 12 13 14 15 16 17 18 19 20 21 22 23 24 25 26 27 28 29 30 31 32 33 34 35 36
000
FTAK31 PANC 182341
TAFACD
TAF
PACD 182341Z 1900/1924 15014KT 6SM -SHRA BR SCT020 BKN035
      TEMPO 1900/1903 BKN020
     FM190300 23012KT P6SM VCSH SCT020 OVC035
     FM190700 33015G25KT 5SM -SHRASN BKN015
     FM191400 29025G35KT 3SM -SHSN SCT008 BKN012=

USA.gov is the U.S. government's official web portal to all federal, state and local government web resources and services.